Time;durP1;ratioP1;P1;durP2;ratioP2;P2;SDS_P1;SDS_P2;PMS_P1;PMS_P2;Temp;Humidity;BMP_temperature;BMP_pressure;BME280_temperature;BME280_humidity;BME280_pressure;Samples;Min_cycle;Max_cycle;Signal;HPM_P1;HPM_P2
2021/05/18 00:00:28;;;;;;;4.00;1.15;;;;;;;;;;6318025;28;20390;-80
2021/05/18 00:03:29;;;;;;;1.10;1.00;;;10.50;99.90;;;;;;6319230;28;20135;-80
2021/05/18 00:06:29;;;;;;;1.50;1.40;;;10.10;99.90;;;;;;6319267;28;20374;-80
2021/05/18 00:12:49;;;;;;;1.02;1.02;;;10.40;99.90;;;;;;6317674;28;20028;-80
2021/05/18 00:15:50;;;;;;;1.55;0.95;;;10.20;99.90;;;;;;6300330;28;20476;-80
2021/05/18 00:18:51;;;;;;;1.40;1.20;;;10.20;99.90;;;;;;6300782;28;20028;-81
2021/05/18 00:21:52;;;;;;;2.33;1.20;;;;;;;;;;6300747;28;20028;-81
2021/05/18 00:24:52;;;;;;;2.17;1.60;;;10.20;99.90;;;;;;6318739;28;20063;-80
2021/05/18 00:27:53;;;;;;;1.05;1.02;;;;;;;;;;6300225;28;20534;-80
2021/05/18 00:30:54;;;;;;;2.03;1.23;;;10.20;99.90;;;;;;6311036;28;20020;-81
2021/05/18 00:33:54;;;;;;;1.88;1.30;;;10.30;99.90;;;;;;6316883;28;20040;-81
2021/05/18 00:36:55;;;;;;;0.98;0.98;;;10.40;99.90;;;;;;6300012;28;20138;-81
2021/05/18 00:39:55;;;;;;;3.45;1.40;;;10.20;99.90;;;;;;6300039;28;20043;-80
2021/05/18 00:42:56;;;;;;;1.17;1.08;;;10.20;99.90;;;;;;6300325;28;20103;-80
2021/05/18 00:45:57;;;;;;;1.48;1.38;;;10.20;99.90;;;;;;6283445;28;20487;-80
2021/05/18 00:48:58;;;;;;;1.00;1.00;;;10.20;99.90;;;;;;6320120;28;20035;-80
2021/05/18 00:51:58;;;;;;;1.80;1.20;;;10.40;99.90;;;;;;6325021;28;20377;-80
2021/05/18 00:55:05;;;;;;;1.05;1.05;;;;;;;;;;6324696;28;20076;-81
2021/05/18 00:58:26;;;;;;;3.75;1.35;;;10.20;99.90;;;;;;6316738;28;20020;-80
2021/05/18 01:01:26;;;;;;;1.33;1.23;;;10.80;99.90;;;;;;6290927;28;20389;-81
2021/05/18 01:04:28;;;;;;;1.15;1.00;;;;;;;;;;6299491;28;20035;-80
2021/05/18 01:07:29;;;;;;;2.15;1.17;;;;;;;;;;6328992;28;20537;-80
2021/05/18 01:10:29;;;;;;;1.60;1.13;;;10.10;99.90;;;;;;6325589;28;20043;-79
2021/05/18 01:13:31;;;;;;;3.03;1.15;;;10.00;99.90;;;;;;6299717;28;20147;-80
2021/05/18 01:16:33;;;;;;;2.20;1.30;;;10.00;99.90;;;;;;6299537;28;20024;-80
2021/05/18 01:19:34;;;;;;;1.55;1.35;;;9.90;99.90;;;;;;6292395;28;20028;-80
2021/05/18 01:22:35;;;;;;;1.85;1.38;;;10.00;99.90;;;;;;6304194;28;20120;-81
2021/05/18 01:25:35;;;;;;;1.08;1.08;;;;;;;;;;6287992;28;20024;-81
2021/05/18 01:28:36;;;;;;;1.45;1.35;;;9.80;99.90;;;;;;6322710;28;20388;-81
2021/05/18 01:31:37;;;;;;;1.17;1.13;;;;;;;;;;6304982;28;20020;-81
2021/05/18 01:34:38;;;;;;;1.50;1.40;;;9.80;99.90;;;;;;6329909;28;20031;-80
2021/05/18 01:37:40;;;;;;;1.17;1.08;;;9.80;99.90;;;;;;6304699;28;20032;-81
2021/05/18 01:43:52;;;;;;;1.95;1.23;;;9.90;99.90;;;;;;6322610;28;20028;-80
2021/05/18 01:46:53;;;;;;;0.98;0.98;;;9.90;99.90;;;;;;6304514;28;20055;-81
2021/05/18 01:49:54;;;;;;;1.45;1.35;;;10.00;99.90;;;;;;6290826;28;20051;-80
2021/05/18 01:52:55;;;;;;;1.42;1.33;;;10.30;99.90;;;;;;6329070;28;20469;-80
2021/05/18 01:59:25;;;;;;;1.58;1.17;;;10.10;99.90;;;;;;6296101;28;20141;-81
2021/05/18 02:02:26;;;;;;;1.77;1.67;;;9.90;99.90;;;;;;6328741;28;20023;-80
2021/05/18 02:05:35;;;;;;;1.35;0.85;;;9.90;99.90;;;;;;6303633;28;20119;-80
2021/05/18 02:08:36;;;;;;;1.33;1.20;;;10.00;99.90;;;;;;6303579;28;20048;-81
2021/05/18 02:11:37;;;;;;;2.28;1.63;;;;;;;;;;6304124;28;20043;-80
2021/05/18 02:14:39;;;;;;;2.05;1.30;;;;;;;;;;6344455;28;20529;-81
2021/05/18 02:17:44;;;;;;;;;;;10.30;99.90;;;;;;6346363;28;20020;-81
2021/05/18 02:21:19;;;;;;;1.17;1.17;;;;;;;;;;6346700;28;20337;-82
2021/05/18 02:27:28;;;;;;;0.93;0.93;;;9.90;99.90;;;;;;6345591;28;20028;-81
2021/05/18 02:30:28;;;;;;;;;;;9.90;99.90;;;;;;6329157;28;20465;-80
2021/05/18 02:33:29;;;;;;;1.25;1.15;;;9.80;99.90;;;;;;6325267;28;19957;-81
2021/05/18 02:36:29;;;;;;;1.08;0.95;;;10.20;99.90;;;;;;6303582;28;20490;-81
2021/05/18 02:39:30;;;;;;;1.45;1.35;;;;;;;;;;6319659;28;20069;-80
2021/05/18 02:42:31;;;;;;;1.30;1.20;;;;;;;;;;6302620;28;20020;-81
2021/05/18 02:51:54;;;;;;;1.40;1.30;;;9.70;99.90;;;;;;6305276;28;20052;-80
2021/05/18 02:54:56;;;;;;;1.30;1.20;;;;;;;;;;6319102;28;20070;-80
2021/05/18 02:57:57;;;;;;;1.38;1.27;;;;;;;;;;6319056;28;20190;-80
2021/05/18 03:00:58;;;;;;;1.42;1.33;;;;;;;;;;6319269;28;20050;-80
2021/05/18 03:03:59;;;;;;;1.65;1.25;;;;;;;;;;6319112;28;20020;-79
2021/05/18 03:07:00;;;;;;;2.10;1.35;;;9.70;99.90;;;;;;6319110;28;20436;-80
2021/05/18 03:10:02;;;;;;;3.08;1.45;;;;;;;;;;6319175;28;20040;-80
2021/05/18 03:13:03;;;;;;;1.35;1.20;;;;;;;;;;6302155;28;20024;-79
2021/05/18 03:16:05;;;;;;;1.50;1.40;;;9.60;99.90;;;;;;6318907;28;20016;-80
2021/05/18 03:19:06;;;;;;;3.03;1.00;;;;;;;;;;6285414;28;20043;-79
2021/05/18 03:22:07;;;;;;;1.27;1.23;;;;;;;;;;6319072;28;20024;-80
2021/05/18 03:25:08;;;;;;;1.30;1.20;;;9.40;99.90;;;;;;6318990;28;20052;-79
2021/05/18 03:28:09;;;;;;;1.63;1.52;;;9.30;99.90;;;;;;6301941;28;20044;-80
2021/05/18 03:34:26;;;;;;;2.33;1.70;;;;;;;;;;6318822;28;20032;-80
2021/05/18 03:40:38;;;;;;;3.33;2.05;;;;;;;;;;6316542;28;20024;-80
2021/05/18 04:04:01;;;;;;;1.48;1.38;;;9.50;99.90;;;;;;6318109;28;20040;-81
2021/05/18 04:19:57;;;;;;;1.83;1.73;;;9.50;99.90;;;;;;6303201;28;20532;-80
2021/05/18 04:39:07;;;;;;;3.20;1.70;;;9.50;99.90;;;;;;6318078;28;20039;-79
2021/05/18 04:52:11;;;;;;;1.80;1.20;;;10.10;99.90;;;;;;6302656;28;20040;-83
2021/05/18 05:02:47;;;;;;;1.17;0.95;;;9.60;99.90;;;;;;6320529;28;20375;-82
2021/05/18 05:08:40;;;;;;;2.53;1.27;;;9.60;99.90;;;;;;6315262;28;20096;-83
2021/05/18 05:15:00;;;;;;;1.63;1.27;;;9.60;99.90;;;;;;6302450;28;20458;-81
2021/05/18 05:18:00;;;;;;;3.40;2.03;;;9.90;99.90;;;;;;6299569;28;20070;-83
2021/05/18 05:21:01;;;;;;;3.72;1.48;;;10.60;99.90;;;;;;6299886;28;20031;-83
2021/05/18 05:24:02;;;;;;;1.48;1.38;;;9.60;99.90;;;;;;6316334;28;20032;-80
2021/05/18 05:27:02;;;;;;;1.70;1.30;;;9.70;99.90;;;;;;6317451;28;20063;-80
2021/05/18 05:30:04;;;;;;;1.98;1.17;;;9.50;99.90;;;;;;6285994;28;20126;-81
2021/05/18 05:33:04;;;;;;;2.22;1.55;;;9.60;99.90;;;;;;6308732;28;20469;-83
2021/05/18 05:36:05;;;;;;;1.40;1.30;;;9.80;99.90;;;;;;6294552;28;20035;-83
2021/05/18 05:39:10;;;;;;;1.13;1.05;;;9.50;99.90;;;;;;6287639;28;20043;-78
2021/05/18 05:42:10;;;;;;;1.25;1.17;;;9.40;99.90;;;;;;6283646;28;20082;-81
2021/05/18 05:45:12;;;;;;;1.60;1.50;;;9.40;99.90;;;;;;6299334;28;20055;-80
2021/05/18 05:48:12;;;;;;;0.93;0.93;;;9.40;99.90;;;;;;6320045;28;20401;-80
2021/05/18 05:51:13;;;;;;;1.27;1.17;;;9.40;99.90;;;;;;6293668;28;20031;-80
2021/05/18 05:54:13;;;;;;;1.52;1.40;;;9.40;99.90;;;;;;6282777;28;20115;-83
2021/05/18 05:57:14;;;;;;;1.05;1.05;;;9.40;99.90;;;;;;6282831;28;20028;-81
2021/05/18 06:00:15;;;;;;;2.03;1.50;;;9.30;99.90;;;;;;6299059;28;20024;-80
2021/05/18 06:03:15;;;;;;;1.60;1.50;;;9.30;99.90;;;;;;6302736;28;20063;-80
2021/05/18 06:06:16;;;;;;;1.85;1.38;;;9.30;99.90;;;;;;6299255;28;20053;-81
2021/05/18 06:09:17;;;;;;;7.00;2.20;;;9.60;99.90;;;;;;6290996;28;20108;-78
2021/05/18 06:42:03;;;;;;;6.63;4.78;;;9.90;99.90;;;;;;6322360;28;20020;-81
2021/05/18 06:48:24;;;;;;;3.55;2.30;;;9.90;99.90;;;;;;6305696;28;20048;-81
2021/05/18 06:51:24;;;;;;;2.05;1.95;;;9.90;99.90;;;;;;6319918;28;20085;-81
2021/05/18 06:54:25;;;;;;;2.90;2.25;;;10.00;99.90;;;;;;6316236;28;20060;-82
2021/05/18 06:57:28;;;;;;;3.17;2.03;;;9.50;99.90;;;;;;6319929;28;20036;-80
2021/05/18 07:00:29;;;;;;;5.07;1.80;;;9.60;99.90;;;;;;6334023;28;20030;-85
2021/05/18 07:03:35;;;;;;;5.07;1.60;;;9.80;99.90;;;;;;6319731;28;20055;-82
2021/05/18 07:09:40;;;;;;;4.28;3.10;;;;;;;;;;6344633;28;20043;-81
2021/05/18 07:12:40;;;;;;;2.70;2.20;;;9.80;99.90;;;;;;6322284;28;20189;-85
2021/05/18 07:15:42;;;;;;;3.40;1.92;;;;;;;;;;6285331;28;20032;-81
2021/05/18 07:18:43;;;;;;;6.23;3.83;;;10.10;99.90;;;;;;6318681;28;20099;-82
2021/05/18 07:21:43;;;;;;;4.80;3.08;;;9.80;99.90;;;;;;6324879;28;20034;-81
2021/05/18 07:24:44;;;;;;;2.95;2.35;;;;;;;;;;6326978;28;20161;-81
2021/05/18 07:27:45;;;;;;;3.15;1.95;;;;;;;;;;6345350;28;20024;-82
2021/05/18 07:30:46;;;;;;;5.72;2.95;;;10.00;99.90;;;;;;6327104;28;20044;-82
2021/05/18 07:33:47;;;;;;;2.58;2.30;;;10.00;99.90;;;;;;6304409;28;20089;-81
2021/05/18 07:36:48;;;;;;;3.80;2.45;;;;;;;;;;6301872;28;20032;-81
2021/05/18 07:39:49;;;;;;;13.20;9.27;;;10.10;99.90;;;;;;6301176;28;20032;-82
2021/05/18 07:42:52;;;;;;;3.72;2.40;;;;;;;;;;6279895;28;20031;-81
2021/05/18 07:45:58;;;;;;;2.65;2.40;;;;;;;;;;6316676;28;20519;-80
2021/05/18 08:05:45;;;;;;;2.22;1.88;;;10.50;99.90;;;;;;6307078;28;20024;-82
2021/05/18 08:08:38;;;;;;;3.15;2.20;;;10.30;99.90;;;;;;6315957;28;20042;-81
2021/05/18 08:11:39;;;;;;;5.10;2.97;;;10.60;99.90;;;;;;6284643;28;20382;-82
2021/05/18 08:14:47;;;;;;;3.65;2.72;;;10.50;99.90;;;;;;6319234;28;20032;-84
2021/05/18 08:20:59;;;;;;;3.65;2.60;;;11.10;99.90;;;;;;6286911;28;20039;-81
2021/05/18 09:37:49;;;;;;;4.25;2.60;;;13.20;99.90;;;;;;6305079;28;20031;-82
2021/05/18 10:35:45;;;;;;;10.68;6.85;;;18.60;71.90;;;;;;6315111;28;20470;-85
2021/05/18 10:38:47;;;;;;;5.38;3.10;;;17.80;78.50;;;;;;6294507;28;20361;-84
2021/05/18 10:41:48;;;;;;;12.13;9.07;;;18.20;78.40;;;;;;6328534;28;20035;-85
2021/05/18 10:44:56;;;;;;;5.33;3.13;;;18.20;79.80;;;;;;6307341;28;20032;-85
2021/05/18 10:47:57;;;;;;;5.15;2.70;;;17.60;77.90;;;;;;6295952;28;20051;-85
2021/05/18 10:50:58;;;;;;;10.85;5.32;;;;;;;;;;6299252;28;20043;-83
2021/05/18 10:54:25;;;;;;;2.88;2.17;;;17.30;93.20;;;;;;6344216;28;20057;-85
2021/05/18 10:57:30;;;;;;;4.95;2.95;;;17.40;97.80;;;;;;6325676;28;20466;-84
2021/05/18 11:00:31;;;;;;;3.55;2.90;;;;;;;;;;6276312;28;20626;-86
2021/05/18 11:03:33;;;;;;;3.60;2.47;;;16.00;92.10;;;;;;6292275;28;20020;-84
2021/05/18 11:06:34;;;;;;;5.18;2.50;;;;;;;;;;6302525;28;20115;-84
2021/05/18 11:09:35;;;;;;;4.57;3.30;;;;;;;;;;6295605;28;20048;-85
2021/05/18 11:12:36;;;;;;;4.50;3.03;;;16.10;96.60;;;;;;6318757;28;20478;-85
2021/05/18 11:15:37;;;;;;;4.07;2.22;;;;;;;;;;6302367;28;20028;-84
2021/05/18 11:18:38;;;;;;;4.65;3.33;;;16.10;95.80;;;;;;6329243;28;20058;-85
2021/05/18 11:21:43;;;;;;;4.70;2.60;;;;;;;;;;6336470;28;20030;-84
2021/05/18 11:24:48;;;;;;;4.60;2.10;;;15.60;83.50;;;;;;6313080;28;20103;-84
2021/05/18 11:27:48;;;;;;;4.70;2.10;;;15.30;85.20;;;;;;6285247;28;20082;-84
2021/05/18 11:30:53;;;;;;;2.72;2.00;;;14.60;88.80;;;;;;6285183;28;20041;-84
2021/05/18 11:34:02;;;;;;;5.20;2.22;;;14.60;99.30;;;;;;6302237;28;20730;-84
2021/05/18 11:37:03;;;;;;;4.35;2.28;;;14.90;99.90;;;;;;6297365;28;20035;-84
2021/05/18 11:40:13;;;;;;;7.47;2.85;;;14.60;99.90;;;;;;6285117;28;20431;-84
2021/05/18 11:43:22;;;;;;;12.85;7.55;;;15.10;98.60;;;;;;6318670;28;20046;-85
2021/05/18 11:46:23;;;;;;;9.02;4.72;;;14.90;97.60;;;;;;6284753;28;20101;-84
2021/05/18 11:49:24;;;;;;;49.97;25.40;;;14.60;99.90;;;;;;6301947;28;20040;-83
2021/05/18 11:52:25;;;;;;;5.47;3.00;;;14.60;98.00;;;;;;6284478;28;20070;-84
2021/05/18 11:55:29;;;;;;;11.40;4.65;;;14.40;91.50;;;;;;6301628;28;20036;-82
2021/05/18 11:58:30;;;;;;;5.95;2.97;;;14.40;93.00;;;;;;6301299;28;20062;-83
2021/05/18 12:01:35;;;;;;;8.93;5.38;;;15.00;99.90;;;;;;6285106;28;20028;-83
2021/05/18 12:04:37;;;;;;;13.10;5.85;;;;;;;;;;6284417;28;20377;-85
2021/05/18 12:07:38;;;;;;;7.55;5.35;;;15.70;97.10;;;;;;6319093;28;20031;-83
2021/05/18 12:10:38;;;;;;;13.88;9.07;;;15.90;98.10;;;;;;6317866;28;20414;-84
2021/05/18 12:13:39;;;;;;;5.45;3.75;;;16.10;90.40;;;;;;6285435;28;20020;-83
2021/05/18 12:16:41;;;;;;;8.13;3.00;;;14.90;97.20;;;;;;6302829;28;20027;-84
2021/05/18 12:19:42;;;;;;;;;;;15.50;87.80;;;;;;6327009;28;20042;-84
2021/05/18 12:22:44;;;;;;;6.18;3.20;;;14.80;96.50;;;;;;6342831;28;19904;-84
2021/05/18 12:25:45;;;;;;;7.85;2.50;;;15.00;87.10;;;;;;6308745;28;20166;-84
2021/05/18 12:29:01;;;;;;;6.18;2.75;;;14.70;99.90;;;;;;6325526;28;20497;-85
2021/05/18 12:32:21;;;;;;;5.10;2.10;;;14.80;87.50;;;;;;6305979;28;20070;-83
2021/05/18 12:35:22;;;;;;;3.70;2.15;;;14.90;99.90;;;;;;6316968;28;20492;-84
2021/05/18 12:38:23;;;;;;;6.38;2.72;;;;;;;;;;6300785;28;20020;-82
2021/05/18 12:41:24;;;;;;;2.40;2.03;;;15.60;99.90;;;;;;6329921;28;20044;-84
2021/05/18 12:44:48;;;;;;;1.45;1.33;;;15.40;96.50;;;;;;6283422;28;20031;-86
2021/05/18 12:47:58;;;;;;;1.90;1.73;;;15.50;93.00;;;;;;6285604;28;20069;-85
2021/05/18 12:50:58;;;;;;;4.97;2.17;;;15.20;99.90;;;;;;6300590;28;20054;-83
2021/05/18 12:54:03;;;;;;;2.88;2.00;;;15.20;96.10;;;;;;6298759;28;20055;-87
2021/05/18 12:57:04;;;;;;;6.57;2.20;;;15.10;90.60;;;;;;6299825;28;20031;-86
2021/05/18 13:00:15;;;;;;;4.93;2.38;;;15.10;90.10;;;;;;6324772;28;20038;-84
2021/05/18 13:03:17;;;;;;;4.38;1.83;;;15.00;96.60;;;;;;6293852;28;20032;-88
2021/05/18 13:06:19;;;;;;;6.50;3.05;;;;;;;;;;6301503;28;20098;-90
2021/05/18 13:09:30;;;;;;;6.88;2.58;;;15.40;97.80;;;;;;6290357;28;20054;-88
2021/05/18 13:12:30;;;;;;;2.72;2.40;;;15.60;85.80;;;;;;6298016;28;20066;-91
2021/05/18 13:15:31;;;;;;;4.53;2.83;;;16.30;98.60;;;;;;6288756;28;20412;-89
2021/05/18 13:18:32;;;;;;;5.53;2.08;;;;;;;;;;6295190;28;20028;-87
2021/05/18 13:21:39;;;;;;;3.70;1.83;;;16.50;82.30;;;;;;6296654;28;20031;-81
2021/05/18 13:28:00;;;;;;;4.07;2.22;;;16.20;94.20;;;;;;6305745;28;20059;-88
2021/05/18 13:31:01;;;;;;;3.92;2.03;;;16.10;94.40;;;;;;6323093;28;20039;-89
2021/05/18 13:34:02;;;;;;;3.30;2.40;;;16.30;96.40;;;;;;6283650;28;20111;-89
2021/05/18 13:37:03;;;;;;;5.63;2.33;;;16.80;94.00;;;;;;6283190;28;20043;-83
2021/05/18 13:44:01;;;;;;;7.70;2.50;;;17.10;95.40;;;;;;6243687;28;20132;-88
2021/05/18 13:47:02;;;;;;;5.45;2.17;;;17.20;85.50;;;;;;6283273;28;20537;-87
2021/05/18 13:50:03;;;;;;;5.82;2.05;;;17.40;84.50;;;;;;6287884;28;20058;-89
2021/05/18 13:53:05;;;;;;;5.40;2.05;;;17.40;78.40;;;;;;6300343;28;20060;-88
2021/05/18 13:56:05;;;;;;;4.63;2.25;;;17.00;75.40;;;;;;6275163;28;20032;-87
2021/05/18 13:59:06;;;;;;;5.43;2.00;;;;;;;;;;6286560;28;20039;-85
2021/05/18 14:02:07;;;;;;;3.13;2.08;;;;;;;;;;6313024;28;20032;-86
2021/05/18 14:05:11;;;;;;;4.07;2.58;;;16.60;74.80;;;;;;6301649;28;20110;-86
2021/05/18 14:08:26;;;;;;;3.88;1.95;;;16.60;79.00;;;;;;6303166;28;20031;-86
2021/05/18 14:11:27;;;;;;;7.65;2.78;;;16.70;75.90;;;;;;6293410;28;20523;-86
2021/05/18 14:14:27;;;;;;;4.18;1.90;;;16.70;77.60;;;;;;6302872;28;20020;-85
2021/05/18 14:17:28;;;;;;;3.40;1.70;;;;;;;;;;6316448;28;20762;-87
2021/05/18 14:20:29;;;;;;;5.78;1.88;;;17.50;67.30;;;;;;6337136;28;20020;-87
2021/05/18 14:26:46;;;;;;;4.90;2.08;;;17.50;73.40;;;;;;6306139;28;20541;-82
2021/05/18 14:29:47;;;;;;;3.92;1.83;;;17.00;87.50;;;;;;6302421;28;20666;-87
2021/05/18 14:32:47;;;;;;;3.60;2.45;;;17.00;70.50;;;;;;6276900;28;20032;-87
2021/05/18 14:35:49;;;;;;;3.33;2.10;;;;;;;;;;6307040;28;20039;-88
2021/05/18 14:38:49;;;;;;;3.17;1.98;;;16.80;70.90;;;;;;6310864;28;20079;-87
2021/05/18 14:45:10;;;;;;;6.55;2.58;;;16.30;91.40;;;;;;6329201;28;20032;-84
2021/05/18 14:54:54;;;;;;;4.65;2.05;;;17.10;77.80;;;;;;6305830;28;20035;-84
2021/05/18 14:57:55;;;;;;;4.55;2.25;;;17.10;88.60;;;;;;6287654;28;20059;-84
2021/05/18 15:00:56;;;;;;;4.90;1.92;;;17.40;92.50;;;;;;6286709;28;20028;-84
2021/05/18 15:03:56;;;;;;;3.42;1.83;;;17.50;86.60;;;;;;6301085;28;20035;-85
2021/05/18 15:06:57;;;;;;;3.47;2.03;;;17.30;73.20;;;;;;6296661;28;20032;-85
2021/05/18 15:09:58;;;;;;;5.30;1.85;;;17.40;74.00;;;;;;6299960;28;20070;-85
2021/05/18 15:12:59;;;;;;;5.60;1.88;;;17.60;80.80;;;;;;6278326;28;20100;-81
2021/05/18 15:16:00;;;;;;;4.65;1.90;;;17.30;72.50;;;;;;6303801;28;20028;-90
2021/05/18 15:19:08;;;;;;;3.22;1.85;;;;;;;;;;6299210;28;20036;-90
2021/05/18 15:22:12;;;;;;;3.33;2.13;;;16.90;72.10;;;;;;6302427;28;20098;-91
2021/05/18 15:25:14;;;;;;;4.38;2.10;;;17.50;77.40;;;;;;6302982;28;20055;-89
2021/05/18 15:28:15;;;;;;;3.65;2.10;;;16.40;78.00;;;;;;6297171;28;20074;-84
2021/05/18 15:31:16;;;;;;;4.38;1.98;;;;;;;;;;6277097;28;20032;-84
2021/05/18 15:34:17;;;;;;;4.63;2.55;;;16.00;91.90;;;;;;6321589;28;20055;-90
2021/05/18 15:37:18;;;;;;;7.00;3.30;;;15.40;93.60;;;;;;6277779;28;20027;-89
2021/05/18 15:40:18;;;;;;;5.57;4.90;;;15.20;92.70;;;;;;6290483;28;20123;-89
2021/05/18 15:43:19;;;;;;;2.22;1.50;;;;;;;;;;6289480;28;20024;-91
2021/05/18 15:46:20;;;;;;;2.53;1.48;;;;;;;;;;6298832;28;20110;-86
2021/05/18 15:49:24;;;;;;;2.78;1.60;;;14.20;94.70;;;;;;6331951;28;20035;-88
2021/05/18 15:52:27;;;;;;;2.15;1.58;;;14.00;99.90;;;;;;6305701;28;20024;-88
2021/05/18 15:55:28;;;;;;;2.42;1.60;;;;;;;;;;6292585;28;20074;-89
2021/05/18 15:58:30;;;;;;;1.83;1.67;;;13.80;86.10;;;;;;6310689;28;20024;-87
2021/05/18 16:01:30;;;;;;;2.90;1.65;;;13.40;99.90;;;;;;6299840;28;20030;-88
2021/05/18 16:04:31;;;;;;;4.88;2.13;;;;;;;;;;6291716;28;20027;-88
2021/05/18 16:07:33;;;;;;;3.30;1.63;;;13.30;99.90;;;;;;6307873;28;20378;-86
2021/05/18 16:10:34;;;;;;;3.50;1.80;;;;;;;;;;6277240;28;20074;-86
2021/05/18 16:13:35;;;;;;;2.40;1.40;;;;;;;;;;6293483;28;20028;-85
2021/05/18 16:16:36;;;;;;;2.22;1.77;;;;;;;;;;6306992;28;20072;-86
2021/05/18 16:19:37;;;;;;;1.50;1.40;;;;;;;;;;6295580;28;20118;-87
2021/05/18 16:22:38;;;;;;;2.63;1.40;;;;;;;;;;6293169;28;20434;-85
2021/05/18 16:25:39;;;;;;;2.88;1.70;;;;;;;;;;6292321;28;20016;-86
2021/05/18 16:28:41;;;;;;;2.80;1.48;;;;;;;;;;6293697;28;20039;-85
2021/05/18 16:31:42;;;;;;;3.75;2.30;;;;;;;;;;6319256;28;20112;-88
2021/05/18 16:34:43;;;;;;;2.75;1.85;;;;;;;;;;6300672;28;20026;-87
2021/05/18 16:37:44;;;;;;;2.97;2.00;;;;;;;;;;6299534;28;20036;-84
2021/05/18 16:40:48;;;;;;;3.92;1.90;;;;;;;;;;6305838;28;20032;-84
2021/05/18 16:43:49;;;;;;;1.98;1.65;;;12.00;99.90;;;;;;6299584;28;20020;-85
2021/05/18 16:46:50;;;;;;;1.95;1.75;;;12.20;96.10;;;;;;6298109;28;20157;-84
2021/05/18 16:49:51;;;;;;;3.42;2.10;;;;;;;;;;6282876;28;20492;-85
2021/05/18 16:52:51;;;;;;;1.98;1.60;;;11.90;99.90;;;;;;6302869;28;20075;-85
2021/05/18 16:55:52;;;;;;;4.32;2.63;;;12.00;99.90;;;;;;6288011;28;20030;-87
2021/05/18 16:58:53;;;;;;;5.32;2.17;;;;;;;;;;6296218;28;20035;-86
2021/05/18 17:01:54;;;;;;;1.50;1.40;;;11.90;99.90;;;;;;6315439;28;20049;-86
2021/05/18 17:04:55;;;;;;;2.22;1.50;;;12.00;96.70;;;;;;6289203;28;20492;-85
2021/05/18 17:07:55;;;;;;;3.58;1.90;;;11.90;99.90;;;;;;6305903;28;20032;-89
2021/05/18 17:10:56;;;;;;;2.05;1.60;;;;;;;;;;6304156;28;20035;-86
2021/05/18 17:13:57;;;;;;;1.90;1.70;;;12.20;94.30;;;;;;6332738;28;20055;-86
2021/05/18 17:16:58;;;;;;;3.25;2.00;;;;;;;;;;6290315;28;20024;-84
2021/05/18 17:20:00;;;;;;;7.50;4.32;;;12.10;95.60;;;;;;6305202;28;20087;-85
2021/05/18 17:23:02;;;;;;;5.70;3.37;;;11.90;95.60;;;;;;6294611;28;20084;-85
2021/05/18 17:26:02;;;;;;;5.63;2.22;;;12.30;96.70;;;;;;6300693;28;20258;-83
2021/05/18 17:29:03;;;;;;;1.58;1.48;;;11.60;99.90;;;;;;6282011;28;20109;-84
2021/05/18 17:32:05;;;;;;;2.40;1.80;;;11.70;99.90;;;;;;6284466;28;20032;-86
2021/05/18 17:35:06;;;;;;;2.95;2.10;;;11.60;99.90;;;;;;6298410;28;20035;-87
2021/05/18 17:38:06;;;;;;;2.58;2.35;;;11.90;97.90;;;;;;6272199;28;20035;-80
2021/05/18 17:41:07;;;;;;;7.70;2.17;;;;;;;;;;6294732;28;20032;-86
2021/05/18 17:44:08;;;;;;;3.35;2.20;;;;;;;;;;6317124;28;20080;-89
2021/05/18 17:47:11;;;;;;;6.07;2.22;;;;;;;;;;6308795;28;20143;-89
2021/05/18 17:50:12;;;;;;;;;;;11.20;99.30;;;;;;6329496;28;20052;-89
2021/05/18 17:53:13;;;;;;;3.60;2.05;;;;;;;;;;6314907;28;19908;-90
2021/05/18 17:56:23;;;;;;;5.20;2.00;;;11.60;99.90;;;;;;6318041;28;20034;-91
2021/05/18 17:59:24;;;;;;;5.10;2.28;;;;;;;;;;6289320;28;20032;-91
2021/05/18 18:02:25;;;;;;;8.85;5.60;;;;;;;;;;6315513;28;20074;-87
2021/05/18 18:05:26;;;;;;;3.58;2.55;;;10.40;99.90;;;;;;6306234;28;20019;-88
2021/05/18 18:08:27;;;;;;;5.95;2.38;;;;;;;;;;6297447;28;20031;-89
2021/05/18 18:11:28;;;;;;;2.67;2.17;;;10.30;99.90;;;;;;6301692;28;20033;-91
2021/05/18 18:14:41;;;;;;;2.28;2.05;;;10.20;99.90;;;;;;6292384;28;20393;-90
2021/05/18 18:17:57;;;;;;;3.30;2.22;;;;;;;;;;6293774;28;20036;-89
2021/05/18 18:21:12;;;;;;;5.75;2.50;;;10.10;99.90;;;;;;6300135;28;20115;-88
2021/05/18 18:24:13;;;;;;;4.10;2.30;;;;;;;;;;6296521;28;20041;-88
2021/05/18 18:27:17;;;;;;;4.22;2.70;;;;;;;;;;6294465;28;20070;-86
2021/05/18 18:30:18;;;;;;;3.28;2.58;;;9.60;99.90;;;;;;6299599;28;20036;-86
2021/05/18 18:33:22;;;;;;;4.25;2.92;;;;;;;;;;6295897;28;20055;-87
2021/05/18 18:36:23;;;;;;;3.85;2.85;;;9.80;99.90;;;;;;6296500;28;20032;-85
2021/05/18 18:39:24;;;;;;;4.25;2.50;;;;;;;;;;6309659;28;20687;-84
2021/05/18 18:42:24;;;;;;;4.85;2.42;;;;;;;;;;6307553;28;20095;-86
2021/05/18 18:45:26;;;;;;;4.15;2.28;;;;;;;;;;6308379;28;20031;-90
2021/05/18 18:48:26;;;;;;;3.42;2.35;;;9.10;99.90;;;;;;6289995;28;20087;-84
2021/05/18 18:51:31;;;;;;;2.38;2.05;;;;;;;;;;6287785;28;20028;-85
2021/05/18 18:54:32;;;;;;;4.75;2.13;;;9.10;99.90;;;;;;6323404;28;20020;-85
2021/05/18 18:57:32;;;;;;;2.60;2.40;;;9.30;99.90;;;;;;6295220;28;20061;-83
2021/05/18 19:00:33;;;;;;;4.07;2.45;;;;;;;;;;6273491;28;20058;-84
2021/05/18 19:03:38;;;;;;;3.75;2.97;;;9.20;99.90;;;;;;6290781;28;20059;-87
2021/05/18 19:06:56;;;;;;;6.60;2.83;;;9.10;99.90;;;;;;6276608;28;20074;-88
2021/05/18 19:10:25;;;;;;;4.40;2.70;;;9.70;99.90;;;;;;6280050;28;20452;-82
2021/05/18 19:13:17;;;;;;;4.78;2.50;;;9.20;99.90;;;;;;6310866;28;20047;-84
2021/05/18 19:16:18;;;;;;;5.68;2.95;;;9.30;99.90;;;;;;6301569;28;20028;-83
2021/05/18 19:19:18;;;;;;;4.95;3.15;;;9.40;99.90;;;;;;6289269;28;20424;-86
2021/05/18 19:22:19;;;;;;;3.22;2.90;;;;;;;;;;6325571;28;20032;-89
2021/05/18 19:25:20;;;;;;;3.40;3.00;;;9.30;99.90;;;;;;6290208;28;20027;-86
2021/05/18 19:28:21;;;;;;;2.80;2.33;;;;;;;;;;6287632;28;20032;-84
2021/05/18 19:31:22;;;;;;;3.90;2.40;;;;;;;;;;6291247;28;20492;-88
2021/05/18 19:34:25;;;;;;;23.67;2.88;;;9.40;99.90;;;;;;6290749;28;20059;-85
2021/05/18 19:37:36;;;;;;;3.88;2.15;;;;;;;;;;6295470;28;20106;-86
2021/05/18 19:44:24;;;;;;;4.43;2.30;;;9.20;99.90;;;;;;6291760;28;20024;-85
2021/05/18 19:50:44;;;;;;;33.92;17.75;;;9.10;99.90;;;;;;6319362;28;20051;-86
2021/05/18 19:53:44;;;;;;;9.40;6.10;;;9.40;99.90;;;;;;6312282;28;20468;-84
2021/05/18 20:22:52;;;;;;;3.70;2.42;;;8.90;99.90;;;;;;6237054;28;20318;-86
2021/05/18 20:25:53;;;;;;;3.17;2.40;;;8.80;99.90;;;;;;6297892;28;20059;-86
2021/05/18 20:28:54;;;;;;;2.20;2.00;;;9.10;99.90;;;;;;6283247;28;20039;-84
2021/05/18 20:31:55;;;;;;;2.83;2.40;;;;;;;;;;6292538;28;20032;-84
2021/05/18 20:35:13;;;;;;;2.78;2.05;;;9.20;99.90;;;;;;6326773;28;20028;-86
2021/05/18 20:41:33;;;;;;;5.10;2.47;;;9.00;99.90;;;;;;6312356;28;20036;-89
2021/05/18 20:44:34;;;;;;;3.25;2.40;;;9.00;99.90;;;;;;6276997;28;20116;-85
2021/05/18 20:47:35;;;;;;;3.50;2.13;;;;;;;;;;6316954;28;20948;-85
2021/05/18 20:50:35;;;;;;;3.22;2.50;;;9.10;99.90;;;;;;6318977;28;20051;-87
2021/05/18 20:53:37;;;;;;;11.68;8.15;;;;;;;;;;6292645;28;20382;-85
2021/05/18 20:56:38;;;;;;;4.07;2.72;;;;;;;;;;6319290;28;20465;-85
2021/05/18 20:59:39;;;;;;;4.60;3.30;;;;;;;;;;6316248;28;20032;-88
2021/05/18 21:02:39;;;;;;;2.67;2.00;;;9.00;99.90;;;;;;6290080;28;20027;-80
2021/05/18 21:05:40;;;;;;;3.22;2.40;;;;;;;;;;6316767;28;20027;-80
2021/05/18 21:08:53;;;;;;;5.63;2.58;;;;;;;;;;6316641;28;20056;-81
2021/05/18 21:12:02;;;;;;;2.92;2.63;;;;;;;;;;6316511;28;20568;-81
2021/05/18 21:18:24;;;;;;;2.45;2.25;;;8.50;99.90;;;;;;6301797;28;20390;-80
2021/05/18 21:21:24;;;;;;;3.38;2.40;;;8.70;99.90;;;;;;6312572;28;20024;-80
2021/05/18 21:24:26;;;;;;;2.97;2.35;;;;;;;;;;6299703;28;20485;-80
2021/05/18 21:27:26;;;;;;;3.63;2.30;;;8.80;99.90;;;;;;6307376;28;20029;-80
2021/05/18 21:30:28;;;;;;;3.92;2.20;;;;;;;;;;6283016;28;20061;-80
2021/05/18 21:33:29;;;;;;;4.15;2.50;;;;;;;;;;6316249;28;20020;-80
2021/05/18 21:36:29;;;;;;;2.45;2.13;;;8.40;99.90;;;;;;6324177;28;20035;-80
2021/05/18 21:39:45;;;;;;;2.78;2.50;;;8.60;99.90;;;;;;6329191;28;20800;-80
2021/05/18 21:42:48;;;;;;;2.88;2.28;;;8.50;99.90;;;;;;6332171;28;20027;-80
2021/05/18 21:45:49;;;;;;;2.40;2.20;;;8.40;99.90;;;;;;6329772;28;20028;-80
2021/05/18 21:48:50;;;;;;;4.05;2.45;;;8.50;99.90;;;;;;6346050;28;20047;-80
2021/05/18 21:51:51;;;;;;;4.20;2.20;;;;;;;;;;6346011;28;20380;-79
2021/05/18 21:54:52;;;;;;;3.10;1.98;;;8.50;99.90;;;;;;6329386;28;20057;-80
2021/05/18 21:57:53;;;;;;;2.10;1.90;;;;;;;;;;6346195;28;20476;-80
2021/05/18 22:00:54;;;;;;;3.78;2.72;;;8.30;99.90;;;;;;6347238;28;20422;-80
2021/05/18 22:03:55;;;;;;;4.00;2.15;;;8.50;99.90;;;;;;6346479;28;20092;-80
2021/05/18 22:07:01;;;;;;;2.00;1.90;;;;;;;;;;6340517;28;20040;-79
2021/05/18 22:10:09;;;;;;;3.40;2.20;;;8.40;99.90;;;;;;6320828;28;20032;-80
2021/05/18 22:13:25;;;;;;;2.92;2.20;;;;;;;;;;6288950;28;20028;-80
2021/05/18 22:29:04;;;;;;;2.20;2.00;;;;;;;;;;6308111;28;20201;-80